Dewey, Wisconsin
Current Conditions -  °F | °C
As of 2:15 AM on Thursday 27 Nov 2014 (Local Time) from KSTE Reporting Station
Overcast Overcast  
Wind Chill: 10°   Ceiling: 11000
Heat Index: 17°   Visibility: 10mi
Dew Point: 14°   Wind: 5mph
Humidity: 85%   Direction: 310°NW
Pressure: 30.25"   Gusts: NA
Location:  44.5531°N, 89.5186°W
Report Text: KSTE 270815Z AUTO 31004KT 10SM SCT024 OVC110 M08/M10 A3025 RMK AO2 T10811102
Loading
Personal Weather Stations






























Interactive Weather Map New forecast layout! Learn more

10-Day Weather Forecast

Advertisements
Track Severe Weather on mobile